sensor_id;sensor_type;location;lat;lon;timestamp;temperature;humidity
1524;DHT22;755;53.658;10.118;2024-02-21T00:05:35;8.80;99.90
1524;DHT22;755;53.658;10.118;2024-02-21T00:15:44;8.70;99.90
1524;DHT22;755;53.658;10.118;2024-02-21T00:25:52;8.80;99.90
1524;DHT22;755;53.658;10.118;2024-02-21T00:35:55;8.80;99.90
1524;DHT22;755;53.658;10.118;2024-02-21T00:46:00;8.80;99.90
1524;DHT22;755;53.658;10.118;2024-02-21T00:56:04;8.70;99.90
1524;DHT22;755;53.658;10.118;2024-02-21T01:06:11;8.80;99.90
1524;DHT22;755;53.658;10.118;2024-02-21T01:16:13;8.80;99.90
1524;DHT22;755;53.658;10.118;2024-02-21T01:26:18;8.80;99.90
1524;DHT22;755;53.658;10.118;2024-02-21T01:36:21;8.80;99.90
1524;DHT22;755;53.658;10.118;2024-02-21T01:46:25;8.80;99.90
1524;DHT22;755;53.658;10.118;2024-02-21T01:56:33;8.80;99.90
1524;DHT22;755;53.658;10.118;2024-02-21T02:06:36;8.70;99.90
1524;DHT22;755;53.658;10.118;2024-02-21T02:16:39;8.60;99.90
1524;DHT22;755;53.658;10.118;2024-02-21T02:26:43;8.50;99.90
1524;DHT22;755;53.658;10.118;2024-02-21T02:36:46;8.50;99.90
1524;DHT22;755;53.658;10.118;2024-02-21T02:46:52;8.50;99.90
1524;DHT22;755;53.658;10.118;2024-02-21T02:56:54;8.50;99.90
1524;DHT22;755;53.658;10.118;2024-02-21T03:07:00;8.50;99.90
1524;DHT22;755;53.658;10.118;2024-02-21T03:17:09;8.60;99.90
1524;DHT22;755;53.658;10.118;2024-02-21T03:27:16;8.60;99.90
1524;DHT22;755;53.658;10.118;2024-02-21T03:37:21;8.60;99.90
1524;DHT22;755;53.658;10.118;2024-02-21T03:47:25;8.70;99.90
1524;DHT22;755;53.658;10.118;2024-02-21T03:57:28;8.80;99.90
1524;DHT22;755;53.658;10.118;2024-02-21T04:07:35;8.80;99.90
1524;DHT22;755;53.658;10.118;2024-02-21T04:17:40;8.70;99.90
1524;DHT22;755;53.658;10.118;2024-02-21T04:27:45;8.70;99.90
1524;DHT22;755;53.658;10.118;2024-02-21T04:37:50;8.60;99.90
1524;DHT22;755;53.658;10.118;2024-02-21T04:47:54;8.70;99.90
1524;DHT22;755;53.658;10.118;2024-02-21T04:57:56;8.60;99.90
1524;DHT22;755;53.658;10.118;2024-02-21T05:07:59;8.50;99.90
1524;DHT22;755;53.658;10.118;2024-02-21T05:18:09;8.50;99.90
1524;DHT22;755;53.658;10.118;2024-02-21T05:28:13;8.50;99.90
1524;DHT22;755;53.658;10.118;2024-02-21T05:38:16;8.50;99.90
1524;DHT22;755;53.658;10.118;2024-02-21T05:48:21;8.50;99.90
1524;DHT22;755;53.658;10.118;2024-02-21T05:58:24;8.50;99.90
1524;DHT22;755;53.658;10.118;2024-02-21T06:08:27;8.50;99.90
1524;DHT22;755;53.658;10.118;2024-02-21T06:18:30;8.50;99.90
1524;DHT22;755;53.658;10.118;2024-02-21T06:28:40;8.40;99.90
1524;DHT22;755;53.658;10.118;2024-02-21T06:38:44;8.50;99.90
1524;DHT22;755;53.658;10.118;2024-02-21T06:48:51;8.50;99.90
1524;DHT22;755;53.658;10.118;2024-02-21T06:58:54;8.50;99.90
1524;DHT22;755;53.658;10.118;2024-02-21T07:08:58;8.50;99.90
1524;DHT22;755;53.658;10.118;2024-02-21T07:19:01;8.50;99.90
1524;DHT22;755;53.658;10.118;2024-02-21T07:29:09;8.60;99.90
1524;DHT22;755;53.658;10.118;2024-02-21T07:39:11;8.60;99.90
1524;DHT22;755;53.658;10.118;2024-02-21T07:49:18;8.60;99.90
1524;DHT22;755;53.658;10.118;2024-02-21T07:59:29;8.70;99.90
1524;DHT22;755;53.658;10.118;2024-02-21T08:09:33;8.60;99.90
1524;DHT22;755;53.658;10.118;2024-02-21T08:19:43;8.60;99.90
1524;DHT22;755;53.658;10.118;2024-02-21T08:29:47;8.90;99.90
1524;DHT22;755;53.658;10.118;2024-02-21T08:39:49;9.10;99.90
1524;DHT22;755;53.658;10.118;2024-02-21T08:50:00;9.10;99.90
1524;DHT22;755;53.658;10.118;2024-02-21T09:00:10;9.10;99.90
1524;DHT22;755;53.658;10.118;2024-02-21T09:10:20;9.10;99.90
1524;DHT22;755;53.658;10.118;2024-02-21T09:20:36;9.00;99.90
1524;DHT22;755;53.658;10.118;2024-02-21T09:30:42;9.10;99.90
1524;DHT22;755;53.658;10.118;2024-02-21T09:40:44;9.10;99.90
1524;DHT22;755;53.658;10.118;2024-02-21T09:50:53;9.30;99.90
1524;DHT22;755;53.658;10.118;2024-02-21T10:00:57;9.30;99.90
1524;DHT22;755;53.658;10.118;2024-02-21T10:11:04;9.20;99.90
1524;DHT22;755;53.658;10.118;2024-02-21T10:21:07;9.10;99.90
1524;DHT22;755;53.658;10.118;2024-02-21T10:31:21;9.10;99.90
1524;DHT22;755;53.658;10.118;2024-02-21T10:41:26;9.20;99.90
1524;DHT22;755;53.658;10.118;2024-02-21T10:51:33;9.20;99.90
1524;DHT22;755;53.658;10.118;2024-02-21T11:01:38;9.10;99.90
1524;DHT22;755;53.658;10.118;2024-02-21T11:11:50;9.20;99.90
1524;DHT22;755;53.658;10.118;2024-02-21T11:21:57;9.20;99.90
1524;DHT22;755;53.658;10.118;2024-02-21T11:32:09;9.20;99.90
1524;DHT22;755;53.658;10.118;2024-02-21T11:42:17;9.20;99.90
1524;DHT22;755;53.658;10.118;2024-02-21T11:52:23;9.20;99.90
1524;DHT22;755;53.658;10.118;2024-02-21T12:02:26;9.10;99.90
1524;DHT22;755;53.658;10.118;2024-02-21T12:12:30;9.00;99.90
1524;DHT22;755;53.658;10.118;2024-02-21T12:22:37;9.00;99.90
1524;DHT22;755;53.658;10.118;2024-02-21T12:32:43;8.90;99.90
1524;DHT22;755;53.658;10.118;2024-02-21T12:42:49;8.90;99.90
1524;DHT22;755;53.658;10.118;2024-02-21T12:52:56;8.90;99.90
1524;DHT22;755;53.658;10.118;2024-02-21T13:02:59;8.90;99.90
1524;DHT22;755;53.658;10.118;2024-02-21T13:13:06;8.70;99.90
1524;DHT22;755;53.658;10.118;2024-02-21T13:23:09;8.70;99.90
1524;DHT22;755;53.658;10.118;2024-02-21T13:33:16;8.70;99.90
1524;DHT22;755;53.658;10.118;2024-02-21T13:43:24;8.80;99.90
1524;DHT22;755;53.658;10.118;2024-02-21T13:53:29;9.00;99.90
1524;DHT22;755;53.658;10.118;2024-02-21T14:03:31;9.10;99.90
1524;DHT22;755;53.658;10.118;2024-02-21T14:13:35;9.20;99.90
1524;DHT22;755;53.658;10.118;2024-02-21T14:23:37;9.30;99.90
1524;DHT22;755;53.658;10.118;2024-02-21T14:33:43;9.30;99.90
1524;DHT22;755;53.658;10.118;2024-02-21T14:43:49;9.40;99.90
1524;DHT22;755;53.658;10.118;2024-02-21T14:53:53;9.50;99.90
1524;DHT22;755;53.658;10.118;2024-02-21T15:03:56;9.50;99.90
1524;DHT22;755;53.658;10.118;2024-02-21T15:14:00;9.50;99.90
1524;DHT22;755;53.658;10.118;2024-02-21T15:24:02;9.40;99.90
1524;DHT22;755;53.658;10.118;2024-02-21T15:34:10;9.30;99.90
1524;DHT22;755;53.658;10.118;2024-02-21T15:44:23;9.30;99.90
1524;DHT22;755;53.658;10.118;2024-02-21T15:54:29;9.20;99.90
1524;DHT22;755;53.658;10.118;2024-02-21T16:04:31;9.10;99.90
1524;DHT22;755;53.658;10.118;2024-02-21T16:14:35;9.00;99.90
1524;DHT22;755;53.658;10.118;2024-02-21T16:24:38;8.80;99.90
1524;DHT22;755;53.658;10.118;2024-02-21T16:34:42;8.70;99.90
1524;DHT22;755;53.658;10.118;2024-02-21T16:44:44;8.60;99.90
1524;DHT22;755;53.658;10.118;2024-02-21T16:54:47;8.60;99.90
1524;DHT22;755;53.658;10.118;2024-02-21T17:04:50;8.60;99.90
1524;DHT22;755;53.658;10.118;2024-02-21T17:14:56;8.60;99.90
1524;DHT22;755;53.658;10.118;2024-02-21T17:25:06;8.60;99.90
1524;DHT22;755;53.658;10.118;2024-02-21T17:35:12;8.50;99.90
1524;DHT22;755;53.658;10.118;2024-02-21T17:45:17;8.50;99.90
1524;DHT22;755;53.658;10.118;2024-02-21T17:55:23;8.50;99.90
1524;DHT22;755;53.658;10.118;2024-02-21T18:05:25;8.50;99.90
1524;DHT22;755;53.658;10.118;2024-02-21T18:15:29;8.40;99.90
1524;DHT22;755;53.658;10.118;2024-02-21T18:25:31;8.30;99.90
1524;DHT22;755;53.658;10.118;2024-02-21T18:35:35;8.30;99.90
1524;DHT22;755;53.658;10.118;2024-02-21T18:45:37;8.20;99.90
1524;DHT22;755;53.658;10.118;2024-02-21T18:55:44;8.20;99.90
1524;DHT22;755;53.658;10.118;2024-02-21T19:05:46;8.20;99.90
1524;DHT22;755;53.658;10.118;2024-02-21T19:15:49;8.20;99.90
1524;DHT22;755;53.658;10.118;2024-02-21T19:25:51;8.20;99.90
1524;DHT22;755;53.658;10.118;2024-02-21T19:35:55;8.20;99.90
1524;DHT22;755;53.658;10.118;2024-02-21T19:46:00;8.30;99.90
1524;DHT22;755;53.658;10.118;2024-02-21T19:56:07;8.20;99.90
1524;DHT22;755;53.658;10.118;2024-02-21T20:06:12;8.30;99.90
1524;DHT22;755;53.658;10.118;2024-02-21T20:16:16;8.30;99.90
1524;DHT22;755;53.658;10.118;2024-02-21T20:26:18;8.30;99.90
1524;DHT22;755;53.658;10.118;2024-02-21T20:36:21;8.40;99.90
1524;DHT22;755;53.658;10.118;2024-02-21T20:46:23;8.40;99.90
1524;DHT22;755;53.658;10.118;2024-02-21T20:56:27;8.30;99.90
1524;DHT22;755;53.658;10.118;2024-02-21T21:06:32;8.30;99.90
1524;DHT22;755;53.658;10.118;2024-02-21T21:16:39;8.10;99.90
1524;DHT22;755;53.658;10.118;2024-02-21T21:26:41;8.00;99.90
1524;DHT22;755;53.658;10.118;2024-02-21T21:36:45;7.90;99.90
1524;DHT22;755;53.658;10.118;2024-02-21T21:46:48;7.80;99.90
1524;DHT22;755;53.658;10.118;2024-02-21T21:56:52;7.80;99.90
1524;DHT22;755;53.658;10.118;2024-02-21T22:06:54;7.80;99.90
1524;DHT22;755;53.658;10.118;2024-02-21T22:16:58;7.80;99.90
1524;DHT22;755;53.658;10.118;2024-02-21T22:27:00;7.80;99.90
1524;DHT22;755;53.658;10.118;2024-02-21T22:37:05;7.70;99.90
1524;DHT22;755;53.658;10.118;2024-02-21T22:47:08;7.70;99.90
1524;DHT22;755;53.658;10.118;2024-02-21T22:57:12;7.70;99.90
1524;DHT22;755;53.658;10.118;2024-02-21T23:07:14;7.60;99.90
1524;DHT22;755;53.658;10.118;2024-02-21T23:17:18;7.60;99.90
1524;DHT22;755;53.658;10.118;2024-02-21T23:27:30;7.50;99.90
1524;DHT22;755;53.658;10.118;2024-02-21T23:37:39;7.50;99.90
1524;DHT22;755;53.658;10.118;2024-02-21T23:47:41;7.40;99.90
1524;DHT22;755;53.658;10.118;2024-02-21T23:57:46;7.30;99.90
